Time;durP1;ratioP1;P1;durP2;ratioP2;P2;SDS_P1;SDS_P2;PMS_P1;PMS_P2;Temp;Humidity;BMP_temperature;BMP_pressure;BME280_temperature;BME280_humidity;BME280_pressure;Samples;Min_cycle;Max_cycle;Signal;HPM_P1;HPM_P2
2022/12/16 00:00:26;;;;;;;74.43;42.73;;;;;;;-1.62;100.00;100932.75;10568493;28;20067;-74
2022/12/16 00:05:27;;;;;;;76.50;42.73;;;;;;;-1.62;100.00;100925.50;10535060;28;20488;-75
2022/12/16 00:10:51;;;;;;;68.63;43.47;;;;;;;-1.63;100.00;100931.09;10555817;27;20085;-74
2022/12/16 00:15:48;;;;;;;79.37;44.47;;;;;;;-1.55;100.00;100928.38;10568695;27;20047;-74
2022/12/16 00:20:51;;;;;;;71.03;42.13;;;;;;;-1.67;100.00;100902.75;10548612;27;20541;-74
2022/12/16 00:25:52;;;;;;;72.83;42.53;;;;;;;-1.51;100.00;100932.41;10566237;28;20491;-75
2022/12/16 00:30:53;;;;;;;75.73;44.17;;;;;;;-1.51;100.00;100924.31;10548313;28;20039;-74
2022/12/16 00:35:54;;;;;;;69.70;42.83;;;;;;;-1.51;100.00;100937.81;10566497;28;20065;-74
2022/12/16 00:40:54;;;;;;;70.97;43.07;;;;;;;-1.66;100.00;100931.41;10550065;28;20039;-74
2022/12/16 00:45:55;;;;;;;72.40;41.43;;;;;;;-1.62;100.00;100938.16;10548598;27;20032;-74
2022/12/16 00:50:55;;;;;;;69.13;43.03;;;;;;;-1.60;100.00;100949.63;10548208;28;20051;-75
2022/12/16 00:56:09;;;;;;;70.90;43.87;;;;;;;-1.46;100.00;100957.00;10530706;28;20043;-74
2022/12/16 01:01:10;;;;;;;73.70;46.70;;;;;;;-1.47;100.00;100952.63;10502993;28;20044;-75
2022/12/16 01:06:13;;;;;;;80.07;46.97;;;;;;;-1.53;100.00;100937.13;10537222;28;20128;-74
2022/12/16 01:11:15;;;;;;;79.17;47.90;;;;;;;-1.42;100.00;100955.66;10534763;27;20106;-74
2022/12/16 01:16:16;;;;;;;83.93;46.70;;;;;;;-1.46;100.00;100935.41;10547339;28;20088;-75
2022/12/16 01:21:16;;;;;;;80.77;44.63;;;;;;;-1.39;100.00;100953.63;10555995;27;20032;-74
2022/12/16 01:26:18;;;;;;;71.73;44.93;;;;;;;-1.43;100.00;100953.97;10590151;28;20046;-74
2022/12/16 01:31:18;;;;;;;77.70;44.53;;;;;;;-1.47;100.00;100940.97;10554303;27;20038;-75
2022/12/16 01:36:19;;;;;;;74.40;43.03;;;;;;;-1.39;100.00;100954.44;10546679;27;20035;-74
2022/12/16 01:41:19;;;;;;;74.07;45.43;;;;;;;-1.30;100.00;100968.75;10539017;27;20039;-75
2022/12/16 01:46:22;;;;;;;79.27;45.57;;;;;;;-1.34;100.00;100976.38;10554961;27;20407;-75
2022/12/16 01:51:25;;;;;;;77.17;47.37;;;;;;;-1.28;100.00;100988.34;10542820;27;20431;-74
2022/12/16 01:56:27;;;;;;;77.17;45.33;;;;;;;-1.27;100.00;100992.75;10559594;27;20043;-74
2022/12/16 02:01:27;;;;;;;79.93;44.30;;;;;;;-1.33;100.00;100977.22;10553762;27;20099;-73
2022/12/16 02:06:29;;;;;;;74.90;44.83;;;;;;;-1.44;100.00;100957.69;10572929;27;20035;-74
2022/12/16 02:11:47;;;;;;;80.27;45.17;;;;;;;-1.29;100.00;100973.16;10569991;28;20418;-73
2022/12/16 02:17:20;;;;;;;77.07;45.13;;;;;;;-1.40;100.00;100968.16;10587543;27;20161;-74
2022/12/16 02:22:44;;;;;;;77.23;46.83;;;;;;;-1.34;100.00;100975.56;10568084;27;20047;-74
2022/12/16 02:27:58;;;;;;;73.50;46.63;;;;;;;-1.30;100.00;100990.38;10575030;27;20040;-74
2022/12/16 02:33:24;;;;;;;74.65;44.95;;;;;;;-1.30;100.00;100985.84;10569754;27;20085;-73
2022/12/16 02:38:41;;;;;;;75.40;44.30;;;;;;;-1.30;100.00;100976.84;10587110;27;20044;-75
2022/12/16 02:43:57;;;;;;;73.60;45.23;;;;;;;-1.27;100.00;100981.94;10554328;27;20039;-75
2022/12/16 02:49:08;;;;;;;90.10;49.75;;;;;;;-1.34;100.00;100970.16;10572176;28;20059;-75
2022/12/16 02:54:08;;;;;;;78.00;47.47;;;;;;;-1.36;100.00;100969.50;10554123;27;20411;-74
2022/12/16 02:59:31;;;;;;;77.80;46.43;;;;;;;-1.35;100.00;100976.56;10569537;27;20059;-75
2022/12/16 03:04:44;;;;;;;84.87;48.53;;;;;;;-1.39;100.00;100969.81;10528002;28;20040;-75
2022/12/16 03:09:45;;;;;;;85.00;47.53;;;;;;;-1.49;100.00;100959.19;10552841;27;20038;-75
2022/12/16 03:14:47;;;;;;;74.00;45.83;;;;;;;-1.29;100.00;100982.09;10513972;27;20040;-74
2022/12/16 03:19:52;;;;;;;77.63;46.30;;;;;;;-1.24;100.00;100989.66;10511393;28;20035;-74
2022/12/16 03:24:52;;;;;;;83.97;49.53;;;;;;;-1.31;100.00;100986.00;10510513;28;20032;-73
2022/12/16 03:30:04;;;;;;;81.27;47.43;;;;;;;-1.22;100.00;101003.84;10509358;28;20031;-74
2022/12/16 03:35:12;;;;;;;80.80;47.43;;;;;;;-1.24;100.00;101000.47;10524607;28;20032;-73
2022/12/16 03:40:13;;;;;;;75.83;45.27;;;;;;;-1.25;100.00;100990.72;10517848;28;20043;-73
2022/12/16 03:45:22;;;;;;;75.60;46.08;;;;;;;-1.21;100.00;101005.56;10551510;27;20039;-74
2022/12/16 03:50:25;;;;;;;73.67;46.80;;;;;;;-1.15;100.00;101012.97;10551760;27;20035;-74
2022/12/16 03:55:26;;;;;;;78.50;47.47;;;;;;;-1.19;100.00;101003.50;10551110;27;20048;-73
2022/12/16 04:00:26;;;;;;;81.37;44.77;;;;;;;-1.15;100.00;101004.84;10550423;27;20043;-74
2022/12/16 04:05:27;;;;;;;74.80;45.57;;;;;;;-1.12;100.00;101026.09;10567404;28;20039;-73
2022/12/16 04:26:26;;;;;;;72.23;45.07;;;;;;;-1.14;100.00;101017.31;10513587;28;20051;-74
2022/12/16 04:31:26;;;;;;;71.67;43.87;;;;;;;-1.08;100.00;101043.66;10524919;28;20408;-74
